sensor_id;sensor_type;location;lat;lon;timestamp;pressure;altitude;pressure_sealevel;temperature;humidity
34658;BME280;20865;43.312;27.152;2023-02-11T00:02:03;102504.34;;;0.85;33.96
34658;BME280;20865;43.312;27.152;2023-02-11T00:04:32;102496.30;;;0.82;34.13
34658;BME280;20865;43.312;27.152;2023-02-11T00:06:59;102497.42;;;0.77;34.19
34658;BME280;20865;43.312;27.152;2023-02-11T00:09:27;102494.00;;;0.80;34.26
34658;BME280;20865;43.312;27.152;2023-02-11T00:11:55;102503.72;;;0.81;34.49
34658;BME280;20865;43.312;27.152;2023-02-11T00:14:22;102496.30;;;0.82;34.59
34658;BME280;20865;43.312;27.152;2023-02-11T00:16:50;102498.93;;;0.82;34.63
34658;BME280;20865;43.312;27.152;2023-02-11T00:19:18;102498.37;;;0.89;34.48
34658;BME280;20865;43.312;27.152;2023-02-11T00:21:45;102498.14;;;0.94;34.31
34658;BME280;20865;43.312;27.152;2023-02-11T00:24:13;102496.34;;;0.93;34.33
34658;BME280;20865;43.312;27.152;2023-02-11T00:26:40;102492.82;;;0.92;34.29
34658;BME280;20865;43.312;27.152;2023-02-11T00:29:09;102489.91;;;0.86;34.03
34658;BME280;20865;43.312;27.152;2023-02-11T00:31:37;102489.11;;;0.87;33.87
34658;BME280;20865;43.312;27.152;2023-02-11T00:34:04;102486.66;;;0.82;33.71
34658;BME280;20865;43.312;27.152;2023-02-11T00:36:32;102487.42;;;0.80;33.82
34658;BME280;20865;43.312;27.152;2023-02-11T00:39:00;102479.10;;;0.80;34.10
34658;BME280;20865;43.312;27.152;2023-02-11T00:41:27;102481.34;;;0.71;34.28
34658;BME280;20865;43.312;27.152;2023-02-11T00:43:55;102474.82;;;0.73;33.80
34658;BME280;20865;43.312;27.152;2023-02-11T00:46:23;102470.27;;;0.68;33.70
34658;BME280;20865;43.312;27.152;2023-02-11T00:48:51;102471.38;;;0.64;33.73
34658;BME280;20865;43.312;27.152;2023-02-11T00:51:20;102470.40;;;0.62;34.01
34658;BME280;20865;43.312;27.152;2023-02-11T00:53:48;102466.54;;;0.63;34.13
34658;BME280;20865;43.312;27.152;2023-02-11T00:56:15;102470.54;;;0.65;34.27
34658;BME280;20865;43.312;27.152;2023-02-11T00:58:43;102473.37;;;0.69;34.31
34658;BME280;20865;43.312;27.152;2023-02-11T01:01:11;102469.31;;;0.66;33.81
34658;BME280;20865;43.312;27.152;2023-02-11T01:03:39;102462.36;;;0.59;32.89
34658;BME280;20865;43.312;27.152;2023-02-11T01:06:08;102469.36;;;0.48;33.00
34658;BME280;20865;43.312;27.152;2023-02-11T01:08:37;102472.54;;;0.41;33.04
34658;BME280;20865;43.312;27.152;2023-02-11T01:11:10;102468.53;;;0.40;33.20
34658;BME280;20865;43.312;27.152;2023-02-11T01:13:36;102467.77;;;0.33;33.84
34658;BME280;20865;43.312;27.152;2023-02-11T01:16:06;102469.36;;;0.29;33.89
34658;BME280;20865;43.312;27.152;2023-02-11T01:18:34;102472.19;;;0.34;33.25
34658;BME280;20865;43.312;27.152;2023-02-11T01:21:02;102466.73;;;0.29;33.29
34658;BME280;20865;43.312;27.152;2023-02-11T01:23:30;102462.08;;;0.23;33.63
34658;BME280;20865;43.312;27.152;2023-02-11T01:25:58;102454.97;;;0.21;33.29
34658;BME280;20865;43.312;27.152;2023-02-11T01:28:28;102457.93;;;0.19;33.09
34658;BME280;20865;43.312;27.152;2023-02-11T01:30:55;102461.73;;;0.16;33.18
34658;BME280;20865;43.312;27.152;2023-02-11T01:33:24;102458.66;;;0.07;33.58
34658;BME280;20865;43.312;27.152;2023-02-11T01:35:51;102456.03;;;0.07;33.06
34658;BME280;20865;43.312;27.152;2023-02-11T01:38:24;102453.94;;;-0.01;32.85
34658;BME280;20865;43.312;27.152;2023-02-11T01:40:57;102438.56;;;-0.11;33.00
34658;BME280;20865;43.312;27.152;2023-02-11T01:43:28;102438.56;;;-0.11;33.00
34658;BME280;20865;43.312;27.152;2023-02-11T01:48:43;102442.09;;;-0.20;33.43
34658;BME280;20865;43.312;27.152;2023-02-11T01:51:15;102444.36;;;-0.18;33.60
34658;BME280;20865;43.312;27.152;2023-02-11T01:53:43;102445.55;;;-0.11;33.65
34658;BME280;20865;43.312;27.152;2023-02-11T01:56:30;102448.60;;;-0.12;33.50
34658;BME280;20865;43.312;27.152;2023-02-11T01:59:22;102451.17;;;-0.13;33.22
34658;BME280;20865;43.312;27.152;2023-02-11T02:01:55;102439.46;;;-0.20;33.43
34658;BME280;20865;43.312;27.152;2023-02-11T02:04:23;102451.29;;;-0.20;33.36
34658;BME280;20865;43.312;27.152;2023-02-11T02:06:56;102448.51;;;-0.23;33.22
34658;BME280;20865;43.312;27.152;2023-02-11T02:09:29;102448.51;;;-0.23;33.22
34658;BME280;20865;43.312;27.152;2023-02-11T02:11:58;102446.51;;;-0.19;33.05
34658;BME280;20865;43.312;27.152;2023-02-11T02:14:26;102455.91;;;-0.14;33.04
34658;BME280;20865;43.312;27.152;2023-02-11T02:16:54;102452.66;;;-0.18;33.07
34658;BME280;20865;43.312;27.152;2023-02-11T02:25:28;102454.67;;;-0.40;33.74
34658;BME280;20865;43.312;27.152;2023-02-11T02:28:04;102454.67;;;-0.40;33.74
34658;BME280;20865;43.312;27.152;2023-02-11T02:30:47;102445.48;;;-0.40;33.96
34658;BME280;20865;43.312;27.152;2023-02-11T02:33:19;102445.48;;;-0.40;33.96
34658;BME280;20865;43.312;27.152;2023-02-11T02:36:02;102451.84;;;-0.35;34.48
34658;BME280;20865;43.312;27.152;2023-02-11T02:38:31;102450.14;;;-0.35;34.63
34658;BME280;20865;43.312;27.152;2023-02-11T02:41:06;102445.16;;;-0.29;34.57
34658;BME280;20865;43.312;27.152;2023-02-11T02:43:33;102455.91;;;-0.24;34.20
34658;BME280;20865;43.312;27.152;2023-02-11T02:46:13;102450.98;;;-0.26;33.21
34658;BME280;20865;43.312;27.152;2023-02-11T02:48:41;102449.67;;;-0.26;33.49
34658;BME280;20865;43.312;27.152;2023-02-11T03:04:28;102452.30;;;-0.26;35.17
34658;BME280;20865;43.312;27.152;2023-02-11T03:06:58;102439.88;;;-0.20;35.33
34658;BME280;20865;43.312;27.152;2023-02-11T03:09:41;102450.13;;;-0.17;35.54
34658;BME280;20865;43.312;27.152;2023-02-11T03:12:05;102453.59;;;-0.08;35.11
34658;BME280;20865;43.312;27.152;2023-02-11T03:14:35;102444.89;;;0.03;34.64
34658;BME280;20865;43.312;27.152;2023-02-11T03:17:05;102444.89;;;0.03;34.64
34658;BME280;20865;43.312;27.152;2023-02-11T03:19:44;102447.25;;;0.06;35.23
34658;BME280;20865;43.312;27.152;2023-02-11T03:22:16;102441.31;;;0.20;35.51
34658;BME280;20865;43.312;27.152;2023-02-11T03:24:39;102442.99;;;0.18;35.65
34658;BME280;20865;43.312;27.152;2023-02-11T03:27:24;102450.39;;;0.27;35.83
34658;BME280;20865;43.312;27.152;2023-02-11T03:29:57;102450.97;;;0.39;35.88
34658;BME280;20865;43.312;27.152;2023-02-11T03:32:25;102448.68;;;0.46;35.80
34658;BME280;20865;43.312;27.152;2023-02-11T03:37:50;102446.09;;;0.48;35.54
34658;BME280;20865;43.312;27.152;2023-02-11T03:40:27;102437.59;;;0.54;35.03
34658;BME280;20865;43.312;27.152;2023-02-11T03:42:58;102444.36;;;0.48;35.13
34658;BME280;20865;43.312;27.152;2023-02-11T03:45:28;102436.84;;;0.56;34.95
34658;BME280;20865;43.312;27.152;2023-02-11T03:48:17;102431.16;;;0.57;34.86
34658;BME280;20865;43.312;27.152;2023-02-11T03:50:45;102429.75;;;0.55;34.78
34658;BME280;20865;43.312;27.152;2023-02-11T03:53:15;102431.72;;;0.50;34.86
34658;BME280;20865;43.312;27.152;2023-02-11T03:55:45;102430.03;;;0.52;34.82
34658;BME280;20865;43.312;27.152;2023-02-11T03:58:13;102437.65;;;0.55;34.81
34658;BME280;20865;43.312;27.152;2023-02-11T04:00:42;102433.51;;;0.51;34.56
34658;BME280;20865;43.312;27.152;2023-02-11T04:03:11;102429.64;;;0.42;34.69
34658;BME280;20865;43.312;27.152;2023-02-11T04:05:39;102433.23;;;0.44;35.15
34658;BME280;20865;43.312;27.152;2023-02-11T04:08:07;102427.63;;;0.46;35.36
34658;BME280;20865;43.312;27.152;2023-02-11T04:10:35;102426.45;;;0.50;35.54
34658;BME280;20865;43.312;27.152;2023-02-11T04:13:03;102419.04;;;0.51;35.68
34658;BME280;20865;43.312;27.152;2023-02-11T04:15:30;102418.95;;;0.59;35.41
34658;BME280;20865;43.312;27.152;2023-02-11T04:17:58;102415.80;;;0.56;35.34
34658;BME280;20865;43.312;27.152;2023-02-11T04:20:26;102413.02;;;0.63;35.35
34658;BME280;20865;43.312;27.152;2023-02-11T04:22:53;102412.88;;;0.60;35.19
34658;BME280;20865;43.312;27.152;2023-02-11T04:25:21;102407.67;;;0.61;34.86
34658;BME280;20865;43.312;27.152;2023-02-11T04:27:49;102401.38;;;0.67;34.59
34658;BME280;20865;43.312;27.152;2023-02-11T04:30:16;102408.98;;;0.61;34.75
34658;BME280;20865;43.312;27.152;2023-02-11T04:32:44;102406.30;;;0.60;34.86
34658;BME280;20865;43.312;27.152;2023-02-11T04:35:11;102405.80;;;0.59;35.01
34658;BME280;20865;43.312;27.152;2023-02-11T04:37:39;102402.92;;;0.53;34.98
34658;BME280;20865;43.312;27.152;2023-02-11T04:40:08;102404.43;;;0.57;35.00
34658;BME280;20865;43.312;27.152;2023-02-11T04:42:35;102398.61;;;0.55;34.48
34658;BME280;20865;43.312;27.152;2023-02-11T04:45:03;102398.00;;;0.51;34.39
34658;BME280;20865;43.312;27.152;2023-02-11T04:47:33;102400.02;;;0.46;34.12
34658;BME280;20865;43.312;27.152;2023-02-11T04:50:01;102405.74;;;0.38;34.19
34658;BME280;20865;43.312;27.152;2023-02-11T04:52:29;102404.66;;;0.33;34.10
34658;BME280;20865;43.312;27.152;2023-02-11T04:54:56;102402.84;;;0.12;34.50
34658;BME280;20865;43.312;27.152;2023-02-11T04:57:24;102409.55;;;0.06;34.66
34658;BME280;20865;43.312;27.152;2023-02-11T04:59:51;102401.25;;;0.06;34.76
34658;BME280;20865;43.312;27.152;2023-02-11T05:02:19;102400.89;;;-0.02;35.05
34658;BME280;20865;43.312;27.152;2023-02-11T05:04:47;102398.22;;;-0.03;35.12
34658;BME280;20865;43.312;27.152;2023-02-11T05:07:14;102395.86;;;-0.07;35.24
34658;BME280;20865;43.312;27.152;2023-02-11T05:09:42;102397.02;;;-0.10;34.94
34658;BME280;20865;43.312;27.152;2023-02-11T05:12:10;102397.02;;;-0.10;34.94
34658;BME280;20865;43.312;27.152;2023-02-11T05:14:37;102399.66;;;-0.10;34.52
34658;BME280;20865;43.312;27.152;2023-02-11T05:17:05;102398.81;;;-0.09;34.44
34658;BME280;20865;43.312;27.152;2023-02-11T05:19:33;102400.33;;;-0.04;34.44
34658;BME280;20865;43.312;27.152;2023-02-11T05:22:01;102394.45;;;-0.08;34.67
34658;BME280;20865;43.312;27.152;2023-02-11T05:24:30;102395.49;;;-0.05;34.66
34658;BME280;20865;43.312;27.152;2023-02-11T05:26:58;102380.00;;;-0.08;34.60
34658;BME280;20865;43.312;27.152;2023-02-11T05:29:26;102392.17;;;-0.01;34.34
34658;BME280;20865;43.312;27.152;2023-02-11T05:31:54;102396.13;;;-0.10;34.03
34658;BME280;20865;43.312;27.152;2023-02-11T05:34:22;102396.13;;;-0.10;33.79
34658;BME280;20865;43.312;27.152;2023-02-11T05:36:51;102403.03;;;-0.12;33.74
34658;BME280;20865;43.312;27.152;2023-02-11T05:39:18;102409.55;;;-0.14;34.14
34658;BME280;20865;43.312;27.152;2023-02-11T05:41:46;102408.47;;;0.49;33.43
34658;BME280;20865;43.312;27.152;2023-02-11T05:44:14;102408.25;;;1.48;32.04
34658;BME280;20865;43.312;27.152;2023-02-11T05:46:41;102404.02;;;2.68;30.28
34658;BME280;20865;43.312;27.152;2023-02-11T05:49:09;102410.11;;;3.85;28.49
34658;BME280;20865;43.312;27.152;2023-02-11T05:51:36;102412.23;;;4.90;27.24
34658;BME280;20865;43.312;27.152;2023-02-11T05:54:04;102403.48;;;5.83;25.83
34658;BME280;20865;43.312;27.152;2023-02-11T05:56:32;102403.84;;;6.84;24.82
34658;BME280;20865;43.312;27.152;2023-02-11T05:59:00;102398.95;;;7.63;23.70
34658;BME280;20865;43.312;27.152;2023-02-11T06:01:28;102402.88;;;8.23;23.07
34658;BME280;20865;43.312;27.152;2023-02-11T06:03:55;102404.91;;;8.38;22.90
34658;BME280;20865;43.312;27.152;2023-02-11T06:06:24;102406.11;;;8.30;23.21
34658;BME280;20865;43.312;27.152;2023-02-11T06:08:52;102408.95;;;8.09;23.57
34658;BME280;20865;43.312;27.152;2023-02-11T06:11:19;102412.16;;;7.87;24.21
34658;BME280;20865;43.312;27.152;2023-02-11T06:13:47;102411.36;;;7.63;24.80
34658;BME280;20865;43.312;27.152;2023-02-11T06:16:14;102419.51;;;7.46;25.07
34658;BME280;20865;43.312;27.152;2023-02-11T06:18:42;102408.00;;;7.19;25.31
34658;BME280;20865;43.312;27.152;2023-02-11T06:21:10;102405.49;;;7.03;25.83
34658;BME280;20865;43.312;27.152;2023-02-11T06:23:38;102400.88;;;6.92;26.17
34658;BME280;20865;43.312;27.152;2023-02-11T06:26:08;102405.87;;;6.76;26.44
34658;BME280;20865;43.312;27.152;2023-02-11T06:28:36;102408.58;;;6.77;26.60
34658;BME280;20865;43.312;27.152;2023-02-11T06:31:07;102413.41;;;6.76;26.67
34658;BME280;20865;43.312;27.152;2023-02-11T06:33:35;102414.72;;;6.75;26.86
34658;BME280;20865;43.312;27.152;2023-02-11T06:36:08;102422.67;;;6.73;26.83
34658;BME280;20865;43.312;27.152;2023-02-11T06:38:33;102418.06;;;6.64;27.13
34658;BME280;20865;43.312;27.152;2023-02-11T06:41:01;102413.78;;;6.73;27.08
34658;BME280;20865;43.312;27.152;2023-02-11T06:43:28;102405.73;;;6.68;27.34
34658;BME280;20865;43.312;27.152;2023-02-11T06:45:56;102404.23;;;6.82;27.65
34658;BME280;20865;43.312;27.152;2023-02-11T06:48:23;102396.39;;;6.90;27.91
34658;BME280;20865;43.312;27.152;2023-02-11T06:50:51;102393.64;;;7.09;28.22
34658;BME280;20865;43.312;27.152;2023-02-11T06:53:18;102396.67;;;7.32;28.48
34658;BME280;20865;43.312;27.152;2023-02-11T06:55:46;102390.80;;;7.53;28.97
34658;BME280;20865;43.312;27.152;2023-02-11T06:58:14;102394.06;;;7.61;29.18
34658;BME280;20865;43.312;27.152;2023-02-11T07:00:42;102388.26;;;7.90;29.38
34658;BME280;20865;43.312;27.152;2023-02-11T07:03:09;102389.42;;;8.10;29.63
34658;BME280;20865;43.312;27.152;2023-02-11T07:05:37;102381.38;;;8.40;30.48
34658;BME280;20865;43.312;27.152;2023-02-11T07:08:05;102390.13;;;8.67;30.73
34658;BME280;20865;43.312;27.152;2023-02-11T07:10:33;102381.18;;;9.04;30.26
34658;BME280;20865;43.312;27.152;2023-02-11T07:13:01;102384.03;;;9.27;29.99
34658;BME280;20865;43.312;27.152;2023-02-11T07:15:29;102370.02;;;9.54;29.63
34658;BME280;20865;43.312;27.152;2023-02-11T07:17:57;102378.20;;;9.82;29.69
34658;BME280;20865;43.312;27.152;2023-02-11T07:20:25;102380.11;;;10.06;29.13
34658;BME280;20865;43.312;27.152;2023-02-11T07:22:53;102385.06;;;10.21;28.95
34658;BME280;20865;43.312;27.152;2023-02-11T07:25:20;102374.48;;;10.38;29.04
34658;BME280;20865;43.312;27.152;2023-02-11T07:27:48;102375.87;;;10.55;28.76
34658;BME280;20865;43.312;27.152;2023-02-11T07:30:16;102360.75;;;10.66;28.46
34658;BME280;20865;43.312;27.152;2023-02-11T07:32:44;102365.23;;;10.80;28.38
34658;BME280;20865;43.312;27.152;2023-02-11T07:35:11;102361.23;;;10.70;28.06
34658;BME280;20865;43.312;27.152;2023-02-11T07:37:40;102368.38;;;10.85;28.58
34658;BME280;20865;43.312;27.152;2023-02-11T07:40:09;102364.36;;;10.97;28.18
34658;BME280;20865;43.312;27.152;2023-02-11T07:42:37;102360.81;;;11.11;28.06
34658;BME280;20865;43.312;27.152;2023-02-11T07:45:07;102345.66;;;11.04;28.38
34658;BME280;20865;43.312;27.152;2023-02-11T07:47:35;102345.64;;;11.11;27.98
34658;BME280;20865;43.312;27.152;2023-02-11T07:50:03;102347.42;;;11.15;28.15
34658;BME280;20865;43.312;27.152;2023-02-11T07:52:32;102339.84;;;11.29;27.93
34658;BME280;20865;43.312;27.152;2023-02-11T07:54:59;102332.70;;;11.35;27.81
34658;BME280;20865;43.312;27.152;2023-02-11T07:57:28;102336.72;;;11.38;27.68
34658;BME280;20865;43.312;27.152;2023-02-11T07:59:55;102334.02;;;11.43;27.75
34658;BME280;20865;43.312;27.152;2023-02-11T08:02:23;102330.44;;;11.56;27.67
34658;BME280;20865;43.312;27.152;2023-02-11T08:04:50;102329.08;;;11.72;27.57
34658;BME280;20865;43.312;27.152;2023-02-11T08:07:18;102331.73;;;11.76;27.26
34658;BME280;20865;43.312;27.152;2023-02-11T08:09:46;102327.28;;;11.75;27.60
34658;BME280;20865;43.312;27.152;2023-02-11T08:12:14;102321.92;;;11.86;27.41
34658;BME280;20865;43.312;27.152;2023-02-11T08:14:41;102323.67;;;11.91;27.16
34658;BME280;20865;43.312;27.152;2023-02-11T08:17:09;102323.69;;;11.90;27.01
34658;BME280;20865;43.312;27.152;2023-02-11T08:19:38;102321.45;;;11.93;26.84
34658;BME280;20865;43.312;27.152;2023-02-11T08:22:05;102321.83;;;12.03;26.83
34658;BME280;20865;43.312;27.152;2023-02-11T08:24:36;102319.60;;;12.10;26.98
34658;BME280;20865;43.312;27.152;2023-02-11T08:27:03;102309.28;;;12.15;27.05
34658;BME280;20865;43.312;27.152;2023-02-11T08:29:31;102311.52;;;12.13;26.55
34658;BME280;20865;43.312;27.152;2023-02-11T08:31:59;102308.43;;;12.10;26.39
34658;BME280;20865;43.312;27.152;2023-02-11T08:34:26;102303.03;;;12.15;26.90
34658;BME280;20865;43.312;27.152;2023-02-11T08:36:54;102308.41;;;12.12;26.62
34658;BME280;20865;43.312;27.152;2023-02-11T08:39:22;102293.16;;;12.28;26.80
34658;BME280;20865;43.312;27.152;2023-02-11T08:41:51;102293.63;;;12.24;26.38
34658;BME280;20865;43.312;27.152;2023-02-11T08:44:20;102293.10;;;12.35;26.46
34658;BME280;20865;43.312;27.152;2023-02-11T08:46:49;102294.37;;;12.45;26.22
34658;BME280;20865;43.312;27.152;2023-02-11T08:49:17;102295.21;;;12.56;26.34
34658;BME280;20865;43.312;27.152;2023-02-11T08:51:45;102289.83;;;12.59;26.06
34658;BME280;20865;43.312;27.152;2023-02-11T08:54:13;102284.47;;;12.59;26.05
34658;BME280;20865;43.312;27.152;2023-02-11T08:56:41;102287.55;;;12.66;26.16
34658;BME280;20865;43.312;27.152;2023-02-11T08:59:11;102283.49;;;12.68;26.47
34658;BME280;20865;43.312;27.152;2023-02-11T09:01:40;102288.02;;;12.62;26.44
34658;BME280;20865;43.312;27.152;2023-02-11T09:04:09;102277.19;;;12.76;26.35
34658;BME280;20865;43.312;27.152;2023-02-11T09:06:37;102273.98;;;12.84;26.30
34658;BME280;20865;43.312;27.152;2023-02-11T09:09:05;102273.11;;;12.79;26.28
34658;BME280;20865;43.312;27.152;2023-02-11T09:11:35;102269.02;;;12.88;26.01
34658;BME280;20865;43.312;27.152;2023-02-11T09:14:03;102265.91;;;12.87;26.24
34658;BME280;20865;43.312;27.152;2023-02-11T09:16:34;102264.52;;;12.94;25.91
34658;BME280;20865;43.312;27.152;2023-02-11T09:19:03;102262.34;;;12.85;25.98
34658;BME280;20865;43.312;27.152;2023-02-11T09:21:31;102265.42;;;12.90;26.14
34658;BME280;20865;43.312;27.152;2023-02-11T09:23:58;102258.70;;;12.94;25.91
34658;BME280;20865;43.312;27.152;2023-02-11T09:26:28;102258.73;;;12.86;26.20
34658;BME280;20865;43.312;27.152;2023-02-11T09:28:57;102252.83;;;13.01;26.49
34658;BME280;20865;43.312;27.152;2023-02-11T09:31:26;102242.12;;;12.96;26.29
34658;BME280;20865;43.312;27.152;2023-02-11T09:33:59;102244.70;;;13.08;25.92
34658;BME280;20865;43.312;27.152;2023-02-11T09:36:28;102244.10;;;13.21;25.98
34658;BME280;20865;43.312;27.152;2023-02-11T09:38:58;102237.39;;;13.23;26.14
34658;BME280;20865;43.312;27.152;2023-02-11T09:41:56;102222.15;;;13.28;26.07
34658;BME280;20865;43.312;27.152;2023-02-11T09:44:25;102223.95;;;13.27;26.22
34658;BME280;20865;43.312;27.152;2023-02-11T09:46:59;102213.45;;;13.45;26.33
34658;BME280;20865;43.312;27.152;2023-02-11T09:49:38;102219.54;;;13.61;26.22
34658;BME280;20865;43.312;27.152;2023-02-11T09:52:25;102204.77;;;13.61;25.30
34658;BME280;20865;43.312;27.152;2023-02-11T09:54:59;102201.59;;;13.63;25.40
34658;BME280;20865;43.312;27.152;2023-02-11T09:57:35;102197.48;;;13.69;24.92
34658;BME280;20865;43.312;27.152;2023-02-11T10:08:49;102178.34;;;13.94;24.44
34658;BME280;20865;43.312;27.152;2023-02-11T10:11:37;102171.08;;;14.00;24.45
34658;BME280;20865;43.312;27.152;2023-02-11T10:17:43;102166.64;;;13.98;24.89
34658;BME280;20865;43.312;27.152;2023-02-11T10:22:26;102157.98;;;14.09;24.64
34658;BME280;20865;43.312;27.152;2023-02-11T10:24:55;102150.84;;;14.05;24.83
34658;BME280;20865;43.312;27.152;2023-02-11T10:27:34;102153.48;;;14.10;24.85
34658;BME280;20865;43.312;27.152;2023-02-11T10:30:25;102141.22;;;14.20;24.94
34658;BME280;20865;43.312;27.152;2023-02-11T10:35:34;102130.52;;;14.17;24.02
34658;BME280;20865;43.312;27.152;2023-02-11T10:38:01;102131.57;;;14.07;24.07
34658;BME280;20865;43.312;27.152;2023-02-11T10:40:30;102127.83;;;14.17;24.63
34658;BME280;20865;43.312;27.152;2023-02-11T10:43:03;102122.41;;;14.19;23.71
34658;BME280;20865;43.312;27.152;2023-02-11T10:45:37;102128.58;;;14.25;23.92
34658;BME280;20865;43.312;27.152;2023-02-11T10:48:34;102117.48;;;14.20;23.43
34658;BME280;20865;43.312;27.152;2023-02-11T10:50:35;102117.45;;;14.21;22.94
34658;BME280;20865;43.312;27.152;2023-02-11T10:53:20;102107.86;;;14.32;23.17
34658;BME280;20865;43.312;27.152;2023-02-11T10:55:51;102108.17;;;14.41;23.20
34658;BME280;20865;43.312;27.152;2023-02-11T11:00:55;102097.89;;;14.39;22.90
34658;BME280;20865;43.312;27.152;2023-02-11T11:03:25;102090.69;;;14.41;23.47
34658;BME280;20865;43.312;27.152;2023-02-11T11:06:01;102090.56;;;14.47;22.71
34658;BME280;20865;43.312;27.152;2023-02-11T11:11:12;102081.02;;;14.58;23.27
34658;BME280;20865;43.312;27.152;2023-02-11T11:13:56;102081.37;;;14.62;22.97
34658;BME280;20865;43.312;27.152;2023-02-11T11:21:47;102070.95;;;14.42;22.54
34658;BME280;20865;43.312;27.152;2023-02-11T11:26:51;102059.09;;;14.28;22.65
34658;BME280;20865;43.312;27.152;2023-02-11T11:29:42;102044.88;;;14.21;22.73
34658;BME280;20865;43.312;27.152;2023-02-11T11:32:19;102055.47;;;14.30;22.86
34658;BME280;20865;43.312;27.152;2023-02-11T11:35:00;102044.53;;;14.40;23.22
34658;BME280;20865;43.312;27.152;2023-02-11T11:37:27;102046.38;;;14.38;23.29
34658;BME280;20865;43.312;27.152;2023-02-11T11:42:43;102036.28;;;14.26;23.73
34658;BME280;20865;43.312;27.152;2023-02-11T11:45:23;102031.59;;;14.38;23.46
34658;BME280;20865;43.312;27.152;2023-02-11T11:50:57;102028.23;;;14.25;22.87
34658;BME280;20865;43.312;27.152;2023-02-11T11:53:25;102013.32;;;14.07;22.83
34658;BME280;20865;43.312;27.152;2023-02-11T11:58:29;102012.66;;;14.18;22.71
34658;BME280;20865;43.312;27.152;2023-02-11T12:12:35;102001.08;;;14.16;23.30
34658;BME280;20865;43.312;27.152;2023-02-11T12:18:52;101992.37;;;14.02;23.78
34658;BME280;20865;43.312;27.152;2023-02-11T12:21:09;101979.88;;;13.98;23.98
34658;BME280;20865;43.312;27.152;2023-02-11T12:26:22;101982.98;;;14.00;23.65
34658;BME280;20865;43.312;27.152;2023-02-11T12:40:32;101972.48;;;14.12;24.98
34658;BME280;20865;43.312;27.152;2023-02-11T12:43:46;101964.73;;;14.19;24.94
34658;BME280;20865;43.312;27.152;2023-02-11T12:56:58;101954.77;;;14.00;24.91
34658;BME280;20865;43.312;27.152;2023-02-11T12:59:40;101950.21;;;14.05;24.80
34658;BME280;20865;43.312;27.152;2023-02-11T13:02:10;101936.52;;;13.95;24.59
34658;BME280;20865;43.312;27.152;2023-02-11T13:04:39;101931.14;;;13.95;24.20
34658;BME280;20865;43.312;27.152;2023-02-11T13:07:24;101927.14;;;13.68;24.32
34658;BME280;20865;43.312;27.152;2023-02-11T13:09:57;101926.44;;;13.82;24.76
34658;BME280;20865;43.312;27.152;2023-02-11T13:12:20;101927.02;;;14.00;24.54
34658;BME280;20865;43.312;27.152;2023-02-11T13:15:11;101924.63;;;13.85;24.36
34658;BME280;20865;43.312;27.152;2023-02-11T13:23:15;101907.83;;;13.46;24.87
34658;BME280;20865;43.312;27.152;2023-02-11T13:25:47;101914.27;;;13.62;25.13
34658;BME280;20865;43.312;27.152;2023-02-11T13:30:56;101914.07;;;13.74;25.37
34658;BME280;20865;43.312;27.152;2023-02-11T13:33:36;101919.67;;;13.84;25.30
34658;BME280;20865;43.312;27.152;2023-02-11T13:38:35;101906.08;;;13.93;24.95
34658;BME280;20865;43.312;27.152;2023-02-11T13:47:01;101903.44;;;13.92;23.67
34658;BME280;20865;43.312;27.152;2023-02-11T13:49:40;101900.34;;;13.89;23.54
34658;BME280;20865;43.312;27.152;2023-02-11T13:54:50;101898.84;;;13.74;23.46
34658;BME280;20865;43.312;27.152;2023-02-11T13:59:58;101891.30;;;13.69;23.78
34658;BME280;20865;43.312;27.152;2023-02-11T14:02:35;101886.02;;;13.65;23.80
34658;BME280;20865;43.312;27.152;2023-02-11T14:05:29;101882.97;;;13.61;23.54
34658;BME280;20865;43.312;27.152;2023-02-11T14:08:17;101888.77;;;13.34;23.45
34658;BME280;20865;43.312;27.152;2023-02-11T14:16:24;101868.82;;;12.94;24.20
34658;BME280;20865;43.312;27.152;2023-02-11T14:18:56;101865.22;;;12.95;24.41
34658;BME280;20865;43.312;27.152;2023-02-11T14:21:34;101854.11;;;12.91;24.26
34658;BME280;20865;43.312;27.152;2023-02-11T14:26:35;101852.14;;;13.02;24.52
34658;BME280;20865;43.312;27.152;2023-02-11T14:31:53;101844.72;;;12.91;24.59
34658;BME280;20865;43.312;27.152;2023-02-11T14:40:39;101847.50;;;12.83;24.47
34658;BME280;20865;43.312;27.152;2023-02-11T14:43:11;101841.71;;;12.82;24.44
34658;BME280;20865;43.312;27.152;2023-02-11T14:45:36;101840.41;;;12.79;24.64
34658;BME280;20865;43.312;27.152;2023-02-11T14:48:15;101843.63;;;12.74;24.57
34658;BME280;20865;43.312;27.152;2023-02-11T14:50:52;101847.62;;;12.75;24.53
34658;BME280;20865;43.312;27.152;2023-02-11T14:53:18;101843.63;;;12.72;24.59
34658;BME280;20865;43.312;27.152;2023-02-11T14:55:53;101836.97;;;12.71;24.67
34658;BME280;20865;43.312;27.152;2023-02-11T14:58:26;101836.59;;;12.65;24.78
34658;BME280;20865;43.312;27.152;2023-02-11T15:00:56;101834.02;;;12.57;25.02
34658;BME280;20865;43.312;27.152;2023-02-11T15:03:27;101834.06;;;12.56;25.04
34658;BME280;20865;43.312;27.152;2023-02-11T15:05:57;101830.04;;;12.56;25.16
34658;BME280;20865;43.312;27.152;2023-02-11T15:08:26;101824.75;;;12.50;25.26
34658;BME280;20865;43.312;27.152;2023-02-11T15:10:56;101827.51;;;12.45;25.31
34658;BME280;20865;43.312;27.152;2023-02-11T15:13:26;101823.14;;;12.38;25.39
34658;BME280;20865;43.312;27.152;2023-02-11T15:16:04;101822.33;;;12.31;25.53
34658;BME280;20865;43.312;27.152;2023-02-11T15:18:38;101816.52;;;12.30;25.66
34658;BME280;20865;43.312;27.152;2023-02-11T15:21:06;101816.59;;;12.26;25.75
34658;BME280;20865;43.312;27.152;2023-02-11T15:23:35;101818.09;;;12.47;25.60